Time;durP1;ratioP1;P1;durP2;ratioP2;P2;SDS_P1;SDS_P2;PMS_P1;PMS_P2;Temp;Humidity;BMP_temperature;BMP_pressure;BME280_temperature;BME280_humidity;BME280_pressure;Samples;Min_cycle;Max_cycle;Signal;HPM_P1;HPM_P2
2021/12/30 00:03:27;;;;;;;95.87;37.23;;;;;;;0.37;100.00;100182.06;10540062;28;20246;-66
2021/12/30 00:08:31;;;;;;;103.40;38.40;;;;;;;0.40;100.00;100181.31;10574585;28;20214;-69
2021/12/30 00:13:36;;;;;;;113.17;38.00;;;;;;;0.42;100.00;100188.16;10581196;28;20253;-66
2021/12/30 00:18:39;;;;;;;105.13;38.17;;;;;;;0.44;100.00;100183.09;10581261;28;20552;-70
2021/12/30 00:23:43;;;;;;;94.40;38.73;;;;;;;0.40;100.00;100188.97;10581501;28;20230;-69
2021/12/30 00:28:48;;;;;;;108.97;38.67;;;;;;;0.50;100.00;100183.28;10587244;28;20218;-65
2021/12/30 00:33:51;;;;;;;103.60;41.23;;;;;;;0.51;100.00;100177.34;10589668;28;20218;-68
2021/12/30 00:38:54;;;;;;;104.63;37.83;;;;;;;0.48;100.00;100183.25;10589147;28;20694;-66
2021/12/30 00:44:00;;;;;;;124.53;41.53;;;;;;;0.54;100.00;100185.94;10589280;28;20218;-67
2021/12/30 00:49:04;;;;;;;106.10;39.20;;;;;;;0.60;100.00;100192.91;10589065;28;20294;-67
2021/12/30 00:54:07;;;;;;;100.20;38.53;;;;;;;0.61;100.00;100192.06;10588685;28;20233;-70
2021/12/30 00:59:12;;;;;;;109.07;40.40;;;;;;;0.65;100.00;100178.56;10588857;28;20219;-72
2021/12/30 01:04:15;;;;;;;107.63;38.47;;;;;;;0.69;100.00;100173.56;10588006;28;20222;-71
2021/12/30 01:09:19;;;;;;;112.73;40.07;;;;;;;0.72;100.00;100170.25;10503975;28;20227;-70
2021/12/30 01:14:27;;;;;;;119.40;40.77;;;;;;;0.72;100.00;100160.03;10503972;28;20281;-68
2021/12/30 01:19:43;;;;;;;99.73;37.80;;;;;;;0.73;100.00;100154.94;10503501;28;20220;-64
2021/12/30 01:24:47;;;;;;;103.10;39.87;;;;;;;0.75;100.00;100165.19;10503244;28;20233;-68
2021/12/30 01:29:51;;;;;;;119.53;40.20;;;;;;;0.83;100.00;100164.56;10503264;28;20757;-67
2021/12/30 01:34:55;;;;;;;106.77;38.37;;;;;;;0.82;100.00;100164.53;10502971;28;20616;-68
2021/12/30 01:39:58;;;;;;;112.97;39.17;;;;;;;0.78;100.00;100176.38;10501727;28;20242;-67
2021/12/30 01:45:04;;;;;;;106.83;38.10;;;;;;;0.84;100.00;100180.78;10502609;28;20748;-67
2021/12/30 01:50:08;;;;;;;115.67;41.33;;;;;;;0.85;100.00;100178.25;10502659;28;20307;-65
2021/12/30 01:55:12;;;;;;;108.40;38.80;;;;;;;0.88;100.00;100177.47;10165590;27;9999695;-65
2021/12/30 02:00:22;;;;;;;96.33;39.03;;;;;;;0.88;100.00;100173.22;10546945;28;20222;-67
2021/12/30 02:05:25;;;;;;;103.90;41.30;;;;;;;0.91;100.00;100170.75;10546663;28;20729;-65
2021/12/30 02:10:28;;;;;;;107.17;39.03;;;;;;;0.94;100.00;100164.84;10546720;28;20225;-67
2021/12/30 02:15:33;;;;;;;98.37;38.07;;;;;;;0.98;100.00;100161.53;10546543;28;20511;-67
2021/12/30 02:20:51;;;;;;;114.40;40.10;;;;;;;1.02;100.00;100174.41;10546277;28;20221;-65
2021/12/30 02:25:57;;;;;;;101.13;37.03;;;;;;;1.06;100.00;100170.25;10545689;28;20226;-63
2021/12/30 02:31:02;;;;;;;107.60;37.43;;;;;;;1.07;100.00;100164.34;10545789;28;20660;-63
2021/12/30 02:36:07;;;;;;;107.20;38.43;;;;;;;1.09;100.00;100175.44;10545805;28;20302;-68
2021/12/30 02:41:14;;;;;;;91.07;36.73;;;;;;;1.11;100.00;100174.66;10545200;28;20239;-68
2021/12/30 02:46:22;;;;;;;95.37;40.03;;;;;;;1.13;100.00;100165.34;10545181;28;20223;-70
2021/12/30 02:51:27;;;;;;;100.47;38.13;;;;;;;1.17;100.00;100176.50;10544751;28;20306;-71
2021/12/30 02:56:31;;;;;;;99.50;38.33;;;;;;;1.24;100.00;100168.16;10544847;28;20613;-68
2021/12/30 03:01:34;;;;;;;104.63;39.13;;;;;;;1.21;100.00;100167.22;10543332;28;20221;-70
2021/12/30 03:06:39;;;;;;;92.90;38.30;;;;;;;1.23;100.00;100170.66;10544373;28;20720;-66
2021/12/30 03:11:43;;;;;;;98.63;38.23;;;;;;;1.27;100.00;100175.88;10544323;28;20226;-64
2021/12/30 03:16:46;;;;;;;99.00;37.93;;;;;;;1.26;100.00;100168.19;10544665;28;20302;-65
2021/12/30 03:21:51;;;;;;;93.17;36.57;;;;;;;1.31;100.00;100167.47;10543684;28;20223;-68
2021/12/30 03:26:54;;;;;;;97.00;39.97;;;;;;;1.35;100.00;100169.25;10543418;28;20728;-68
2021/12/30 03:31:58;;;;;;;107.27;41.90;;;;;;;1.39;100.00;100176.19;10543713;28;20238;-65
2021/12/30 03:37:02;;;;;;;96.47;37.80;;;;;;;1.39;100.00;100183.84;10542016;28;20230;-67
2021/12/30 03:42:06;;;;;;;117.05;49.80;;;;;;;1.45;100.00;100186.53;10541714;28;20509;-70
2021/12/30 03:47:13;;;;;;;97.07;40.47;;;;;;;1.42;100.00;100190.69;10543068;28;20628;-66
2021/12/30 03:52:24;;;;;;;98.20;40.73;;;;;;;1.42;100.00;100199.25;10543302;28;20220;-69
2021/12/30 03:57:27;;;;;;;97.57;39.53;;;;;;;1.42;100.00;100203.47;10542807;28;20294;-69
2021/12/30 04:02:31;;;;;;;105.97;38.27;;;;;;;1.41;100.00;100210.31;10541967;28;20533;-65
2021/12/30 04:07:36;;;;;;;94.07;37.57;;;;;;;1.45;100.00;100216.38;10542543;28;20219;-71
2021/12/30 04:12:40;;;;;;;90.90;38.07;;;;;;;1.48;100.00;100217.31;10542555;28;20215;-67
2021/12/30 04:17:44;;;;;;;84.23;37.67;;;;;;;1.53;100.00;100225.94;10542293;28;20215;-66
2021/12/30 04:22:49;;;;;;;85.50;32.93;;;;;;;1.57;100.00;100244.78;10542119;28;20219;-66
2021/12/30 04:27:52;;;;;;;80.93;35.87;;;;;;;1.66;100.00;100240.72;10542278;28;20540;-70
2021/12/30 04:32:55;;;;;;;83.40;37.40;;;;;;;1.66;100.00;100240.72;10541189;28;20211;-67
2021/12/30 04:38:00;;;;;;;79.17;35.47;;;;;;;1.82;100.00;100231.72;10541699;28;20215;-65
2021/12/30 04:43:03;;;;;;;77.60;36.13;;;;;;;1.77;100.00;100229.06;10540135;28;20316;-66
2021/12/30 04:48:06;;;;;;;94.87;38.50;;;;;;;1.81;100.00;100222.31;10541732;28;20306;-65
2021/12/30 04:53:12;;;;;;;85.43;34.43;;;;;;;1.82;100.00;100221.47;10541664;28;20231;-67
2021/12/30 04:58:16;;;;;;;82.03;34.30;;;;;;;1.86;100.00;100224.16;10184709;27;9999638;-66
2021/12/30 05:03:21;;;;;;;89.67;36.37;;;;;;;1.88;100.00;100213.97;10538093;28;20215;-68
2021/12/30 05:08:27;;;;;;;92.43;37.40;;;;;;;1.90;100.00;100209.72;10537880;28;20557;-70
2021/12/30 05:13:30;;;;;;;87.43;37.20;;;;;;;1.91;100.00;100217.44;10541275;28;20227;-67
2021/12/30 05:18:34;;;;;;;85.80;36.93;;;;;;;1.92;100.00;100225.97;10545226;28;20219;-67
2021/12/30 05:23:39;;;;;;;80.80;36.57;;;;;;;1.94;100.00;100235.41;10545552;28;20239;-69
2021/12/30 05:28:43;;;;;;;79.00;35.27;;;;;;;2.13;100.00;100232.44;10544803;28;20286;-77
2021/12/30 05:33:46;;;;;;;79.63;36.03;;;;;;;2.21;100.00;100218.09;10545080;28;20218;-66
2021/12/30 05:38:51;;;;;;;80.60;35.10;;;;;;;2.05;100.00;100210.91;10544400;28;20215;-71
2021/12/30 05:43:54;;;;;;;78.17;34.57;;;;;;;2.08;100.00;100221.22;10544329;28;20212;-68
2021/12/30 05:48:58;;;;;;;85.63;33.93;;;;;;;2.13;100.00;100229.88;10544453;28;20948;-66
2021/12/30 05:54:02;;;;;;;83.93;35.77;;;;;;;2.12;100.00;100250.31;10544086;28;20739;-69
2021/12/30 05:59:05;;;;;;;83.77;36.90;;;;;;;2.13;100.00;100258.03;10577868;28;20286;-67
2021/12/30 06:04:09;;;;;;;77.50;35.40;;;;;;;2.16;100.00;100272.56;10542840;28;20211;-72
2021/12/30 06:09:14;;;;;;;82.30;35.83;;;;;;;2.16;100.00;100263.19;10543269;28;20302;-67
2021/12/30 06:14:17;;;;;;;80.47;36.30;;;;;;;2.20;100.00;100267.56;10542236;28;20219;-73
2021/12/30 06:19:20;;;;;;;82.50;36.57;;;;;;;2.20;100.00;100277.81;10542069;28;20246;-65
2021/12/30 06:24:26;;;;;;;84.03;35.70;;;;;;;2.19;100.00;100288.84;10542453;28;20220;-65
2021/12/30 06:29:29;;;;;;;83.40;35.50;;;;;;;2.25;100.00;100290.69;10542518;28;20557;-66
2021/12/30 06:34:32;;;;;;;81.47;33.73;;;;;;;2.24;100.00;100291.53;10542533;28;20243;-66
2021/12/30 06:39:37;;;;;;;89.60;35.93;;;;;;;2.25;100.00;100289.00;10540366;28;20346;-68
2021/12/30 06:44:40;;;;;;;83.67;35.30;;;;;;;2.25;100.00;100299.25;10541993;28;20234;-69
2021/12/30 06:49:43;;;;;;;77.80;34.57;;;;;;;2.26;100.00;100293.28;10541641;28;20226;-66
2021/12/30 06:54:48;;;;;;;80.20;31.33;;;;;;;2.30;100.00;100313.00;10546149;28;20222;-69
2021/12/30 06:59:51;;;;;;;84.80;34.37;;;;;;;2.33;100.00;100313.06;10578122;28;20298;-68
2021/12/30 07:04:54;;;;;;;88.47;34.13;;;;;;;2.35;100.00;100316.53;10540906;28;20649;-69
2021/12/30 07:09:59;;;;;;;76.00;34.07;;;;;;;2.35;100.00;100310.53;10540100;28;20259;-69
2021/12/30 07:15:03;;;;;;;70.30;31.37;;;;;;;2.38;100.00;100315.75;10538829;28;20190;-66
2021/12/30 07:20:09;;;;;;;73.43;31.97;;;;;;;2.43;100.00;100311.59;10540310;28;20529;-69
2021/12/30 07:25:16;;;;;;;70.83;30.10;;;;;;;2.48;100.00;100322.78;10540304;28;20222;-67
2021/12/30 07:30:22;;;;;;;78.40;30.07;;;;;;;2.63;100.00;100322.22;10540284;28;20257;-69
2021/12/30 07:35:26;;;;;;;67.40;29.20;;;;;;;2.86;100.00;100327.00;10539340;28;20191;-69
2021/12/30 07:40:35;;;;;;;66.00;26.53;;;;;;;2.77;100.00;100326.81;10539649;28;20311;-71
2021/12/30 07:45:38;;;;;;;72.50;28.17;;;;;;;2.77;100.00;100331.94;10539811;28;20211;-65
2021/12/30 07:50:41;;;;;;;63.63;26.80;;;;;;;2.78;100.00;100337.94;10539436;28;20188;-71
2021/12/30 07:55:46;;;;;;;63.03;27.27;;;;;;;2.83;100.00;100328.66;10552455;28;20539;-67
2021/12/30 08:00:49;;;;;;;56.77;25.50;;;;;;;2.85;100.00;100315.00;10575544;28;20187;-66
2021/12/30 08:05:53;;;;;;;56.00;26.57;;;;;;;2.88;100.00;100307.38;10539082;28;20318;-67
2021/12/30 08:10:58;;;;;;;63.13;26.17;;;;;;;2.93;100.00;100310.06;10539149;28;20187;-65
2021/12/30 08:16:01;;;;;;;50.00;22.93;;;;;;;2.99;100.00;100315.28;10538977;28;20200;-65
2021/12/30 08:21:04;;;;;;;49.93;23.33;;;;;;;3.08;100.00;100318.03;10538816;28;20278;-68
2021/12/30 08:26:09;;;;;;;54.83;24.33;;;;;;;3.17;100.00;100334.47;10539066;28;20230;-64
2021/12/30 08:31:12;;;;;;;62.10;25.30;;;;;;;3.15;100.00;100345.50;10538601;28;20202;-69
2021/12/30 08:36:15;;;;;;;59.45;28.85;;;;;;;3.15;100.00;100328.44;10537885;28;20505;-67
2021/12/30 08:41:20;;;;;;;51.97;25.93;;;;;;;3.19;100.00;100337.88;10537020;28;20235;-70
2021/12/30 08:46:24;;;;;;;62.73;25.93;;;;;;;3.18;100.00;100332.75;10538472;28;20717;-66
2021/12/30 08:51:27;;;;;;;58.97;24.60;;;;;;;3.23;100.00;100334.56;10546335;28;20238;-65
2021/12/30 08:56:32;;;;;;;49.77;23.90;;;;;;;3.28;100.00;100327.81;10565875;28;20214;-67
2021/12/30 09:01:35;;;;;;;54.77;23.40;;;;;;;3.34;100.00;100338.19;10555742;28;20385;-70
2021/12/30 09:06:42;;;;;;;48.83;23.73;;;;;;;3.40;100.00;100340.84;10545957;28;20219;-69
2021/12/30 09:11:47;;;;;;;57.53;25.70;;;;;;;3.40;100.00;100337.41;10193858;27;10000246;-66
2021/12/30 09:16:51;;;;;;;55.00;25.10;;;;;;;3.42;100.00;100335.75;10548612;28;20306;-65
2021/12/30 09:21:56;;;;;;;50.70;23.83;;;;;;;3.44;100.00;100318.69;10548205;28;20720;-66
2021/12/30 09:27:01;;;;;;;51.07;22.97;;;;;;;3.43;100.00;100306.72;10546929;28;20333;-67
2021/12/30 09:32:05;;;;;;;50.07;22.83;;;;;;;3.43;100.00;100296.47;10548041;28;20344;-65
2021/12/30 09:37:10;;;;;;;52.70;24.60;;;;;;;3.43;100.00;100296.47;10548073;28;20219;-67
2021/12/30 09:42:17;;;;;;;53.53;24.83;;;;;;;3.48;100.00;100310.22;10547942;28;20234;-67
2021/12/30 09:47:20;;;;;;;54.80;24.70;;;;;;;3.51;100.00;100303.44;10547375;28;20595;-64
2021/12/30 09:52:23;;;;;;;45.60;23.13;;;;;;;3.51;100.00;100289.75;10547163;28;20287;-69
2021/12/30 09:57:28;;;;;;;59.10;26.67;;;;;;;3.52;100.00;100288.88;10547208;28;20599;-68
2021/12/30 10:02:31;;;;;;;60.30;25.80;;;;;;;3.56;100.00;100293.25;10545836;28;20211;-65
2021/12/30 10:07:35;;;;;;;56.37;28.57;;;;;;;3.60;100.00;100284.78;10546616;28;20227;-68
2021/12/30 10:12:44;;;;;;;65.97;28.07;;;;;;;3.57;100.00;100282.16;10545821;28;20304;-66
2021/12/30 10:17:54;;;;;;;61.53;27.90;;;;;;;3.62;100.00;100283.09;10546579;28;20215;-67
2021/12/30 10:23:08;;;;;;;52.50;27.03;;;;;;;3.70;100.00;100280.63;10545846;28;20229;-74
2021/12/30 10:28:26;;;;;;;60.87;27.37;;;;;;;3.72;100.00;100278.97;10545759;28;20315;-68
2021/12/30 10:33:31;;;;;;;52.50;28.03;;;;;;;3.73;100.00;100275.56;10545374;28;20369;-68
2021/12/30 10:38:34;;;;;;;63.17;29.60;;;;;;;3.66;100.00;100273.75;10545635;28;20295;-68
2021/12/30 10:43:46;;;;;;;60.17;29.70;;;;;;;3.62;100.00;100270.28;10544983;28;20238;-67
2021/12/30 10:48:52;;;;;;;64.33;30.37;;;;;;;3.60;100.00;100278.78;10545208;28;20302;-64
2021/12/30 10:53:57;;;;;;;61.00;31.40;;;;;;;3.57;100.00;100266.78;10544800;28;20227;-67
2021/12/30 10:59:23;;;;;;;63.97;30.23;;;;;;;3.55;100.00;100268.44;10544982;28;20298;-66
2021/12/30 11:04:36;;;;;;;54.50;26.70;;;;;;;3.58;100.00;100263.34;10544443;28;20729;-68
2021/12/30 11:09:46;;;;;;;62.60;29.43;;;;;;;3.62;100.00;100280.53;10200651;27;10000000;-66
2021/12/30 11:14:51;;;;;;;61.87;28.93;;;;;;;3.70;100.00;100276.38;10568130;28;20211;-67
2021/12/30 11:19:56;;;;;;;59.13;28.37;;;;;;;3.79;100.00;100266.25;10540742;28;20219;-69
2021/12/30 11:25:02;;;;;;;74.40;31.20;;;;;;;3.92;100.00;100250.19;10540482;28;20222;-67
2021/12/30 11:30:10;;;;;;;62.53;30.63;;;;;;;4.03;100.00;100242.66;10540344;28;20377;-69
2021/12/30 11:35:14;;;;;;;65.13;32.20;;;;;;;4.05;100.00;100243.53;10540077;28;20211;-70
2021/12/30 11:40:21;;;;;;;65.37;29.87;;;;;;;4.06;100.00;100248.69;10539949;28;20245;-69
2021/12/30 11:45:28;;;;;;;67.53;31.50;;;;;;;4.18;100.00;100242.84;10539485;28;20258;-69
2021/12/30 11:50:34;;;;;;;62.10;28.43;;;;;;;4.32;100.00;100229.34;10539889;28;20309;-69
2021/12/30 11:55:46;;;;;;;54.53;26.20;;;;;;;4.49;100.00;100225.28;10539359;28;20212;-68
2021/12/30 12:00:52;;;;;;;60.27;27.67;;;;;;;4.85;100.00;100232.53;10539424;28;20307;-65
2021/12/30 12:05:55;;;;;;;56.40;25.03;;;;;;;5.14;100.00;100218.28;10187564;27;9999748;-69
2021/12/30 12:11:14;;;;;;;49.17;23.57;;;;;;;5.42;100.00;100217.66;10542421;28;20553;-69
2021/12/30 12:16:59;;;;;;;44.37;23.53;;;;;;;5.61;100.00;100219.53;10542108;28;20223;-68
2021/12/30 12:22:04;;;;;;;44.43;23.20;;;;;;;5.64;100.00;100221.28;10538760;28;20237;-71
2021/12/30 12:27:30;;;;;;;48.73;24.50;;;;;;;5.57;100.00;100228.06;10547833;28;20274;-67
2021/12/30 12:32:40;;;;;;;46.37;22.33;;;;;;;5.44;100.00;100227.97;10550475;28;20230;-67
2021/12/30 12:37:52;;;;;;;46.27;22.87;;;;;;;5.40;100.00;100219.34;10550229;28;20199;-69
2021/12/30 12:42:58;;;;;;;41.40;22.30;;;;;;;5.37;100.00;100205.59;10548967;28;20227;-69
2021/12/30 12:48:27;;;;;;;39.93;21.30;;;;;;;5.41;100.00;100213.38;10546429;28;20227;-68
2021/12/30 12:53:40;;;;;;;43.87;20.70;;;;;;;5.41;100.00;100215.06;10546804;28;20199;-67
2021/12/30 12:58:46;;;;;;;46.07;21.13;;;;;;;5.31;100.00;100206.44;10545707;28;20676;-67
2021/12/30 13:03:53;;;;;;;39.73;21.33;;;;;;;5.23;100.00;100214.94;10545882;28;20263;-71
2021/12/30 13:09:02;;;;;;;41.30;20.87;;;;;;;5.18;100.00;100217.44;10547970;28;20223;-67
2021/12/30 13:14:16;;;;;;;41.73;21.07;;;;;;;5.14;100.00;100218.28;10545688;28;20195;-65
2021/12/30 13:19:22;;;;;;;35.23;20.60;;;;;;;5.12;100.00;100222.56;10545803;28;20306;-66
2021/12/30 13:24:35;;;;;;;35.10;20.70;;;;;;;5.08;100.00;100227.63;10545090;28;20683;-68
2021/12/30 13:29:40;;;;;;;42.93;21.10;;;;;;;5.01;100.00;100228.41;10544763;28;20660;-68
2021/12/30 13:34:57;;;;;;;41.90;21.10;;;;;;;4.94;100.00;100226.63;10545103;28;20192;-68
2021/12/30 13:40:01;;;;;;;36.60;20.80;;;;;;;4.89;100.00;100233.44;10544313;28;20230;-68
2021/12/30 13:45:05;;;;;;;58.10;31.13;;;;;;;4.97;100.00;100239.53;10544448;28;20285;-70
2021/12/30 13:50:13;;;;;;;39.40;23.10;;;;;;;4.93;100.00;100256.63;10543807;28;20318;-68
2021/12/30 13:55:21;;;;;;;42.07;22.57;;;;;;;4.82;100.00;100247.06;10543623;28;20175;-72
2021/12/30 14:00:24;;;;;;;37.47;21.57;;;;;;;4.83;100.00;100243.66;10542721;28;20610;-65
2021/12/30 14:05:29;;;;;;;47.73;22.07;;;;;;;4.75;100.00;100230.72;10551824;28;20194;-66
2021/12/30 14:10:48;;;;;;;45.43;23.40;;;;;;;4.73;100.00;100232.41;10544583;28;20217;-64
2021/12/30 14:15:55;;;;;;;40.33;22.97;;;;;;;4.67;100.00;100225.50;10543326;28;20270;-66
2021/12/30 14:21:01;;;;;;;42.27;22.63;;;;;;;4.69;100.00;100222.97;10542813;28;20257;-70
2021/12/30 14:26:20;;;;;;;80.40;45.03;;;;;;;4.69;100.00;100223.78;10542717;28;20673;-70
2021/12/30 14:31:27;;;;;;;49.75;26.58;;;;;;;4.73;100.00;100220.44;10500790;28;20766;-68
2021/12/30 14:36:32;;;;;;;42.40;23.50;;;;;;;4.63;100.00;100212.59;10502941;28;20189;-67
2021/12/30 14:41:35;;;;;;;44.07;24.07;;;;;;;4.65;100.00;100219.50;10541835;28;20318;-68
2021/12/30 14:46:41;;;;;;;44.20;22.97;;;;;;;4.68;100.00;100229.78;10541581;28;20204;-68
2021/12/30 14:51:46;;;;;;;50.97;24.13;;;;;;;4.64;100.00;100222.03;10541918;28;20252;-71
2021/12/30 14:56:49;;;;;;;49.60;24.80;;;;;;;4.69;100.00;100221.22;10541157;28;20191;-69
2021/12/30 15:01:54;;;;;;;49.57;24.67;;;;;;;4.74;100.00;100234.16;10541543;28;20478;-70
2021/12/30 15:06:59;;;;;;;46.53;24.50;;;;;;;4.85;100.00;100237.69;10558644;28;20246;-66
2021/12/30 15:12:04;;;;;;;54.93;24.57;;;;;;;4.85;100.00;100249.69;10540944;28;20204;-67
2021/12/30 15:17:07;;;;;;;51.60;23.93;;;;;;;4.73;100.00;100247.81;10540801;28;20724;-69
2021/12/30 15:22:12;;;;;;;51.50;25.27;;;;;;;4.83;100.00;100239.41;10540590;28;20302;-65
2021/12/30 15:27:15;;;;;;;57.27;24.50;;;;;;;4.73;100.00;100250.41;10538878;28;20227;-65
2021/12/30 15:32:20;;;;;;;49.07;24.17;;;;;;;4.85;100.00;100250.53;10540307;28;20767;-68
2021/12/30 15:37:24;;;;;;;45.10;22.77;;;;;;;4.80;100.00;100243.63;10540024;28;20754;-65
2021/12/30 15:42:28;;;;;;;48.63;22.30;;;;;;;4.78;100.00;100263.31;10540580;28;20245;-64
2021/12/30 15:47:31;;;;;;;47.27;21.30;;;;;;;4.88;100.00;100244.56;10539501;28;20235;-69
2021/12/30 15:52:36;;;;;;;55.83;24.17;;;;;;;4.87;100.00;100238.56;10539582;28;20219;-67
2021/12/30 15:57:40;;;;;;;46.33;22.03;;;;;;;4.99;100.00;100253.28;10537201;28;20756;-66
2021/12/30 16:02:44;;;;;;;44.93;20.70;;;;;;;4.94;100.00;100257.47;10536951;28;20212;-66
2021/12/30 16:07:50;;;;;;;45.97;21.20;;;;;;;4.91;100.00;100236.88;10564758;28;20227;-71
2021/12/30 16:12:55;;;;;;;39.27;20.23;;;;;;;4.92;100.00;100242.03;10538862;28;20226;-71
2021/12/30 16:17:59;;;;;;;44.40;20.03;;;;;;;4.96;100.00;100258.38;10539945;28;20221;-68
2021/12/30 16:23:05;;;;;;;41.43;18.17;;;;;;;5.12;100.00;100243.13;10538931;28;20227;-67
2021/12/30 16:28:09;;;;;;;40.87;19.47;;;;;;;5.18;100.00;100230.31;10538517;28;20544;-70
2021/12/30 16:33:13;;;;;;;42.03;18.27;;;;;;;5.23;100.00;100209.78;10539461;28;20548;-69
2021/12/30 16:38:18;;;;;;;37.13;17.97;;;;;;;5.22;100.00;100223.47;10538482;28;20317;-71
2021/12/30 16:43:22;;;;;;;56.47;23.27;;;;;;;5.18;100.00;100226.88;10538444;28;20231;-72
2021/12/30 16:48:26;;;;;;;44.07;18.30;;;;;;;5.29;100.00;100245.84;10538102;28;20310;-68
2021/12/30 16:53:32;;;;;;;48.40;19.30;;;;;;;5.17;100.00;100251.75;10538240;28;20219;-66
2021/12/30 16:58:35;;;;;;;41.37;18.87;;;;;;;5.22;100.00;100255.22;10538018;28;20696;-66
2021/12/30 17:03:39;;;;;;;44.87;19.37;;;;;;;5.36;100.00;100240.78;10538022;28;20294;-67
2021/12/30 17:08:44;;;;;;;45.50;18.37;;;;;;;5.30;100.00;100243.28;10574869;28;20355;-67
2021/12/30 17:13:47;;;;;;;36.17;16.27;;;;;;;5.41;100.00;100238.22;10588292;28;20229;-72
2021/12/30 17:18:51;;;;;;;40.00;17.37;;;;;;;5.45;100.00;100233.09;10587820;28;20908;-69
2021/12/30 17:23:56;;;;;;;41.90;17.87;;;;;;;5.43;100.00;100232.25;10587920;28;20699;-67
2021/12/30 17:28:59;;;;;;;44.27;18.83;;;;;;;5.38;100.00;100235.63;10587616;28;20222;-66
2021/12/30 17:34:04;;;;;;;41.37;18.53;;;;;;;5.44;100.00;100227.97;10587237;28;20603;-66
2021/12/30 17:39:11;;;;;;;40.40;18.17;;;;;;;5.38;100.00;100251.09;10587187;28;20228;-67
2021/12/30 17:44:15;;;;;;;46.97;20.37;;;;;;;5.48;100.00;100260.59;10586923;27;20294;-67
2021/12/30 17:49:18;;;;;;;44.83;19.27;;;;;;;5.64;100.00;100265.03;10586662;28;20225;-66
2021/12/30 17:54:23;;;;;;;42.43;18.97;;;;;;;5.66;100.00;100265.91;10586602;28;20223;-62
2021/12/30 17:59:27;;;;;;;34.53;17.13;;;;;;;5.79;100.00;100265.13;10586106;28;20630;-65
2021/12/30 18:04:30;;;;;;;47.53;18.30;;;;;;;5.72;100.00;100263.38;10585881;28;20215;-62
2021/12/30 18:09:35;;;;;;;45.43;18.83;;;;;;;5.72;100.00;100276.25;10501589;28;20226;-64
2021/12/30 18:14:38;;;;;;;48.13;21.33;;;;;;;5.76;100.00;100260.81;10501323;28;20219;-68
2021/12/30 18:19:42;;;;;;;92.77;41.77;;;;;;;5.68;100.00;100269.34;10500727;28;20220;-69
2021/12/30 18:24:48;;;;;;;40.83;17.70;;;;;;;5.82;100.00;100236.84;10501176;28;20216;-63
2021/12/30 18:29:51;;;;;;;38.57;18.00;;;;;;;5.75;100.00;100251.38;10501143;28;20308;-67
2021/12/30 18:34:54;;;;;;;50.47;22.57;;;;;;;5.78;100.00;100258.28;10500695;28;20692;-68
2021/12/30 18:39:59;;;;;;;39.83;18.23;;;;;;;5.86;100.00;100251.50;10500319;28;20254;-64
2021/12/30 18:45:03;;;;;;;37.07;17.60;;;;;;;5.83;100.00;100233.47;10530886;28;20230;-68
2021/12/30 18:50:11;;;;;;;55.43;25.37;;;;;;;5.94;100.00;100239.53;10533515;28;20588;-66
2021/12/30 18:55:20;;;;;;;39.23;19.17;;;;;;;5.90;100.00;100234.34;10538457;28;20234;-69
2021/12/30 19:00:27;;;;;;;35.00;17.67;;;;;;;5.90;100.00;100239.50;10540327;28;20253;-68
2021/12/30 19:05:31;;;;;;;50.83;20.27;;;;;;;5.85;100.00;100247.19;10539668;28;20207;-65
2021/12/30 19:10:36;;;;;;;48.13;20.07;;;;;;;5.77;100.00;100228.22;10541698;28;20526;-67
2021/12/30 19:15:43;;;;;;;47.27;21.37;;;;;;;5.79;100.00;100229.09;10540351;28;20643;-71
2021/12/30 19:20:52;;;;;;;52.00;21.83;;;;;;;5.78;100.00;100229.97;10540201;28;20239;-63
2021/12/30 19:25:57;;;;;;;45.60;20.67;;;;;;;5.71;100.00;100239.31;10537382;28;20207;-65
2021/12/30 19:31:01;;;;;;;53.43;22.23;;;;;;;5.73;100.00;100231.59;10539348;28;20215;-67
2021/12/30 19:36:05;;;;;;;48.67;23.73;;;;;;;5.69;100.00;100225.56;10535823;28;20216;-62
2021/12/30 19:41:11;;;;;;;48.37;21.70;;;;;;;5.78;100.00;100247.97;10538898;28;20568;-67
2021/12/30 19:46:17;;;;;;;50.33;20.90;;;;;;;5.83;100.00;100249.75;10536778;28;20692;-66
2021/12/30 19:51:22;;;;;;;48.43;20.20;;;;;;;5.87;100.00;100252.38;10538561;28;20302;-71
2021/12/30 19:56:27;;;;;;;42.90;20.47;;;;;;;5.77;100.00;100267.72;10535588;28;20282;-66
2021/12/30 20:01:31;;;;;;;54.30;22.10;;;;;;;5.81;100.00;100255.72;10538385;28;20271;-65
2021/12/30 20:06:34;;;;;;;54.03;22.53;;;;;;;5.76;100.00;100254.81;10538642;28;20187;-67
2021/12/30 20:11:39;;;;;;;50.47;22.20;;;;;;;5.69;100.00;100264.19;10537364;28;20221;-70
2021/12/30 20:16:43;;;;;;;50.40;21.60;;;;;;;5.80;100.00;100264.28;10536760;28;20191;-65
2021/12/30 20:21:46;;;;;;;50.77;20.83;;;;;;;5.74;100.00;100269.41;10538303;28;20192;-64
2021/12/30 20:26:54;;;;;;;52.10;22.30;;;;;;;5.67;100.00;100263.34;10538621;28;20248;-64
2021/12/30 20:31:58;;;;;;;50.70;20.07;;;;;;;5.57;100.00;100253.81;10539029;28;20211;-66
2021/12/30 20:37:01;;;;;;;58.10;22.60;;;;;;;5.51;100.00;100258.03;10539041;28;20701;-64
2021/12/30 20:42:07;;;;;;;45.73;20.60;;;;;;;5.48;100.00;100258.03;10538868;28;20300;-65
2021/12/30 20:47:10;;;;;;;57.90;21.97;;;;;;;5.49;100.00;100270.03;10546952;28;20271;-65
2021/12/30 20:52:13;;;;;;;50.80;22.07;;;;;;;5.54;100.00;100276.09;10547315;28;20309;-66
2021/12/30 20:57:18;;;;;;;52.40;20.87;;;;;;;5.52;100.00;100260.63;10547983;28;20668;-72
2021/12/30 21:02:21;;;;;;;63.77;23.53;;;;;;;5.56;100.00;100266.66;10546410;28;20195;-71
2021/12/30 21:07:25;;;;;;;63.40;23.37;;;;;;;5.61;100.00;100259.84;10570741;28;20191;-69
2021/12/30 21:12:29;;;;;;;59.03;21.07;;;;;;;5.63;100.00;100253.00;10588376;27;20210;-65
2021/12/30 21:17:33;;;;;;;47.63;20.83;;;;;;;5.56;100.00;100235.78;10587961;28;20215;-74
2021/12/30 21:22:36;;;;;;;53.43;22.50;;;;;;;5.59;100.00;100253.84;10588128;28;20305;-72
2021/12/30 21:27:41;;;;;;;56.00;22.33;;;;;;;5.74;100.00;100241.06;10587656;28;20680;-72
2021/12/30 21:32:44;;;;;;;62.10;23.17;;;;;;;5.66;100.00;100230.72;10587321;28;20262;-70
2021/12/30 21:37:49;;;;;;;55.07;22.40;;;;;;;5.64;100.00;100216.97;10587465;28;20221;-66
2021/12/30 21:42:53;;;;;;;57.37;24.13;;;;;;;5.64;100.00;100209.25;10586953;28;20246;-68
2021/12/30 21:47:57;;;;;;;50.03;22.43;;;;;;;5.62;100.00;100190.38;10586686;28;20222;-70
2021/12/30 21:53:00;;;;;;;57.00;23.53;;;;;;;5.63;100.00;100183.50;10586739;28;20223;-69
2021/12/30 21:58:06;;;;;;;52.57;21.27;;;;;;;5.66;100.00;100175.81;10585139;28;20215;-66
2021/12/30 22:03:10;;;;;;;54.87;20.43;;;;;;;5.65;100.00;100181.78;10570960;28;20227;-66
2021/12/30 22:08:14;;;;;;;54.53;21.70;;;;;;;5.65;100.00;100184.38;10538645;28;20254;-69
2021/12/30 22:13:20;;;;;;;55.93;21.03;;;;;;;5.63;100.00;100178.34;10536574;28;20223;-66
2021/12/30 22:18:23;;;;;;;49.77;22.97;;;;;;;5.59;100.00;100164.59;10534030;28;20326;-65
2021/12/30 22:23:28;;;;;;;58.73;22.27;;;;;;;5.61;100.00;100168.03;10513245;28;20234;-66
2021/12/30 22:28:32;;;;;;;57.40;22.63;;;;;;;5.63;100.00;100168.03;10539544;28;20716;-72
2021/12/30 22:33:36;;;;;;;52.67;22.67;;;;;;;5.66;100.00;100163.78;10539619;28;20223;-69
2021/12/30 22:38:39;;;;;;;56.10;23.07;;;;;;;5.70;100.00;100154.34;10530933;28;20208;-65
2021/12/30 22:43:44;;;;;;;52.00;22.23;;;;;;;5.69;100.00;100150.06;10538981;28;20258;-66
2021/12/30 22:48:47;;;;;;;51.63;23.23;;;;;;;5.67;100.00;100139.78;10541764;28;20212;-67